sensor_id;sensor_type;location;lat;lon;timestamp;P1;durP1;ratioP1;P2;durP2;ratioP2
42912;SDS011;50720;54.324;18.558;2022-07-23T00:01:02;10.15;;;8.15;;
42912;SDS011;50720;54.324;18.558;2022-07-23T00:03:31;12.32;;;8.40;;
42912;SDS011;50720;54.324;18.558;2022-07-23T00:06:02;9.48;;;7.93;;
42912;SDS011;50720;54.324;18.558;2022-07-23T00:08:36;10.80;;;8.50;;
42912;SDS011;50720;54.324;18.558;2022-07-23T00:11:05;14.50;;;9.85;;
42912;SDS011;50720;54.324;18.558;2022-07-23T00:13:43;13.95;;;8.32;;
42912;SDS011;50720;54.324;18.558;2022-07-23T00:16:13;12.60;;;8.48;;
42912;SDS011;50720;54.324;18.558;2022-07-23T00:18:47;12.70;;;8.30;;
42912;SDS011;50720;54.324;18.558;2022-07-23T00:21:18;10.75;;;8.50;;
42912;SDS011;50720;54.324;18.558;2022-07-23T00:26:51;14.18;;;9.63;;
42912;SDS011;50720;54.324;18.558;2022-07-23T00:29:21;12.52;;;9.00;;
42912;SDS011;50720;54.324;18.558;2022-07-23T00:31:51;12.35;;;8.88;;
42912;SDS011;50720;54.324;18.558;2022-07-23T00:34:20;13.02;;;9.43;;
42912;SDS011;50720;54.324;18.558;2022-07-23T00:36:52;10.70;;;8.50;;
42912;SDS011;50720;54.324;18.558;2022-07-23T00:39:21;12.70;;;9.18;;
42912;SDS011;50720;54.324;18.558;2022-07-23T00:41:52;10.95;;;8.43;;
42912;SDS011;50720;54.324;18.558;2022-07-23T00:44:22;15.20;;;8.87;;
42912;SDS011;50720;54.324;18.558;2022-07-23T00:46:54;12.52;;;8.57;;
42912;SDS011;50720;54.324;18.558;2022-07-23T00:49:26;13.73;;;8.63;;
42912;SDS011;50720;54.324;18.558;2022-07-23T00:51:59;11.95;;;9.20;;
42912;SDS011;50720;54.324;18.558;2022-07-23T00:54:31;13.07;;;8.93;;
42912;SDS011;50720;54.324;18.558;2022-07-23T00:57:01;11.63;;;9.05;;
42912;SDS011;50720;54.324;18.558;2022-07-23T00:59:31;13.47;;;9.40;;
42912;SDS011;50720;54.324;18.558;2022-07-23T01:02:01;35.03;;;9.88;;
42912;SDS011;50720;54.324;18.558;2022-07-23T01:04:31;12.20;;;9.45;;
42912;SDS011;50720;54.324;18.558;2022-07-23T01:07:02;11.50;;;9.73;;
42912;SDS011;50720;54.324;18.558;2022-07-23T01:09:31;14.85;;;10.02;;
42912;SDS011;50720;54.324;18.558;2022-07-23T01:12:01;13.70;;;8.50;;
42912;SDS011;50720;54.324;18.558;2022-07-23T01:14:31;14.05;;;8.95;;
42912;SDS011;50720;54.324;18.558;2022-07-23T01:17:00;13.00;;;9.05;;
42912;SDS011;50720;54.324;18.558;2022-07-23T01:19:32;13.18;;;9.68;;
42912;SDS011;50720;54.324;18.558;2022-07-23T01:22:03;13.37;;;8.80;;
42912;SDS011;50720;54.324;18.558;2022-07-23T01:24:35;11.23;;;7.93;;
42912;SDS011;50720;54.324;18.558;2022-07-23T01:27:04;10.45;;;7.90;;
42912;SDS011;50720;54.324;18.558;2022-07-23T01:29:35;9.73;;;7.53;;
42912;SDS011;50720;54.324;18.558;2022-07-23T01:32:04;11.75;;;8.02;;
42912;SDS011;50720;54.324;18.558;2022-07-23T01:34:35;8.65;;;7.75;;
42912;SDS011;50720;54.324;18.558;2022-07-23T01:37:05;15.25;;;8.65;;
42912;SDS011;50720;54.324;18.558;2022-07-23T01:39:36;8.15;;;7.30;;
42912;SDS011;50720;54.324;18.558;2022-07-23T01:42:06;10.20;;;7.70;;
42912;SDS011;50720;54.324;18.558;2022-07-23T01:44:35;8.87;;;7.30;;
42912;SDS011;50720;54.324;18.558;2022-07-23T01:47:05;10.05;;;7.75;;
42912;SDS011;50720;54.324;18.558;2022-07-23T01:49:35;11.70;;;8.05;;
42912;SDS011;50720;54.324;18.558;2022-07-23T01:52:05;10.80;;;7.82;;
42912;SDS011;50720;54.324;18.558;2022-07-23T01:54:40;11.45;;;9.23;;
42912;SDS011;50720;54.324;18.558;2022-07-23T01:57:09;13.27;;;8.60;;
42912;SDS011;50720;54.324;18.558;2022-07-23T01:59:39;9.60;;;8.05;;
42912;SDS011;50720;54.324;18.558;2022-07-23T02:02:09;14.48;;;8.80;;
42912;SDS011;50720;54.324;18.558;2022-07-23T02:04:38;12.90;;;8.57;;
42912;SDS011;50720;54.324;18.558;2022-07-23T02:07:08;10.40;;;8.85;;
42912;SDS011;50720;54.324;18.558;2022-07-23T02:09:38;15.30;;;9.68;;
42912;SDS011;50720;54.324;18.558;2022-07-23T02:12:09;14.73;;;10.13;;
42912;SDS011;50720;54.324;18.558;2022-07-23T02:14:39;11.20;;;8.15;;
42912;SDS011;50720;54.324;18.558;2022-07-23T02:19:38;11.05;;;8.35;;
42912;SDS011;50720;54.324;18.558;2022-07-23T02:22:08;11.45;;;8.70;;
42912;SDS011;50720;54.324;18.558;2022-07-23T02:24:39;11.73;;;8.70;;
42912;SDS011;50720;54.324;18.558;2022-07-23T02:27:09;16.17;;;9.63;;
42912;SDS011;50720;54.324;18.558;2022-07-23T02:29:39;13.70;;;9.00;;
42912;SDS011;50720;54.324;18.558;2022-07-23T02:32:09;10.33;;;8.67;;
42912;SDS011;50720;54.324;18.558;2022-07-23T02:34:39;12.10;;;8.32;;
42912;SDS011;50720;54.324;18.558;2022-07-23T02:37:09;9.77;;;7.22;;
42912;SDS011;50720;54.324;18.558;2022-07-23T02:39:40;9.27;;;7.72;;
42912;SDS011;50720;54.324;18.558;2022-07-23T02:42:10;13.52;;;8.50;;
42912;SDS011;50720;54.324;18.558;2022-07-23T02:44:40;17.98;;;9.77;;
42912;SDS011;50720;54.324;18.558;2022-07-23T02:47:09;9.82;;;8.10;;
42912;SDS011;50720;54.324;18.558;2022-07-23T02:49:39;11.38;;;7.35;;
42912;SDS011;50720;54.324;18.558;2022-07-23T02:52:08;8.63;;;7.50;;
42912;SDS011;50720;54.324;18.558;2022-07-23T02:54:39;10.25;;;7.70;;
42912;SDS011;50720;54.324;18.558;2022-07-23T02:57:09;11.32;;;7.80;;
42912;SDS011;50720;54.324;18.558;2022-07-23T02:59:39;13.35;;;7.32;;
42912;SDS011;50720;54.324;18.558;2022-07-23T03:02:08;11.77;;;7.72;;
42912;SDS011;50720;54.324;18.558;2022-07-23T03:04:39;9.35;;;7.38;;
42912;SDS011;50720;54.324;18.558;2022-07-23T03:07:10;13.93;;;8.00;;
42912;SDS011;50720;54.324;18.558;2022-07-23T03:09:42;12.32;;;8.43;;
42912;SDS011;50720;54.324;18.558;2022-07-23T03:12:12;13.38;;;8.30;;
42912;SDS011;50720;54.324;18.558;2022-07-23T03:14:42;13.23;;;7.68;;
42912;SDS011;50720;54.324;18.558;2022-07-23T03:17:12;8.32;;;7.10;;
42912;SDS011;50720;54.324;18.558;2022-07-23T03:19:41;14.60;;;7.88;;
42912;SDS011;50720;54.324;18.558;2022-07-23T03:22:12;13.80;;;8.23;;
42912;SDS011;50720;54.324;18.558;2022-07-23T03:24:43;13.45;;;7.75;;
42912;SDS011;50720;54.324;18.558;2022-07-23T03:27:25;8.88;;;6.78;;
42912;SDS011;50720;54.324;18.558;2022-07-23T03:29:57;13.98;;;8.00;;
42912;SDS011;50720;54.324;18.558;2022-07-23T03:32:27;11.68;;;7.78;;
42912;SDS011;50720;54.324;18.558;2022-07-23T03:34:58;17.33;;;8.27;;
42912;SDS011;50720;54.324;18.558;2022-07-23T03:37:29;10.63;;;7.72;;
42912;SDS011;50720;54.324;18.558;2022-07-23T03:40:00;9.25;;;8.10;;
42912;SDS011;50720;54.324;18.558;2022-07-23T03:42:31;10.40;;;8.82;;
42912;SDS011;50720;54.324;18.558;2022-07-23T03:45:01;11.73;;;8.27;;
42912;SDS011;50720;54.324;18.558;2022-07-23T03:47:31;10.95;;;8.23;;
42912;SDS011;50720;54.324;18.558;2022-07-23T03:50:01;11.80;;;8.30;;
42912;SDS011;50720;54.324;18.558;2022-07-23T03:52:31;10.90;;;8.45;;
42912;SDS011;50720;54.324;18.558;2022-07-23T03:55:02;12.95;;;8.88;;
42912;SDS011;50720;54.324;18.558;2022-07-23T03:57:32;13.18;;;9.25;;
42912;SDS011;50720;54.324;18.558;2022-07-23T04:00:02;11.85;;;8.75;;
42912;SDS011;50720;54.324;18.558;2022-07-23T04:02:34;15.25;;;9.07;;
42912;SDS011;50720;54.324;18.558;2022-07-23T04:05:04;14.45;;;9.10;;
42912;SDS011;50720;54.324;18.558;2022-07-23T04:07:35;12.38;;;9.45;;
42912;SDS011;50720;54.324;18.558;2022-07-23T04:10:07;12.18;;;8.15;;
42912;SDS011;50720;54.324;18.558;2022-07-23T04:12:37;14.80;;;9.13;;
42912;SDS011;50720;54.324;18.558;2022-07-23T04:15:07;10.70;;;8.38;;
42912;SDS011;50720;54.324;18.558;2022-07-23T04:17:38;14.45;;;9.05;;
42912;SDS011;50720;54.324;18.558;2022-07-23T04:20:08;9.93;;;8.40;;
42912;SDS011;50720;54.324;18.558;2022-07-23T04:22:38;11.20;;;8.48;;
42912;SDS011;50720;54.324;18.558;2022-07-23T04:25:10;11.45;;;8.27;;
42912;SDS011;50720;54.324;18.558;2022-07-23T04:27:40;12.52;;;8.60;;
42912;SDS011;50720;54.324;18.558;2022-07-23T04:30:10;12.23;;;8.52;;
42912;SDS011;50720;54.324;18.558;2022-07-23T04:32:40;12.73;;;7.90;;
42912;SDS011;50720;54.324;18.558;2022-07-23T04:35:10;11.98;;;7.90;;
42912;SDS011;50720;54.324;18.558;2022-07-23T04:37:40;11.43;;;8.75;;
42912;SDS011;50720;54.324;18.558;2022-07-23T04:40:12;8.45;;;7.40;;
42912;SDS011;50720;54.324;18.558;2022-07-23T04:42:42;13.13;;;8.45;;
42912;SDS011;50720;54.324;18.558;2022-07-23T04:45:12;7.80;;;7.00;;
42912;SDS011;50720;54.324;18.558;2022-07-23T04:47:41;10.53;;;7.50;;
42912;SDS011;50720;54.324;18.558;2022-07-23T04:50:12;13.60;;;7.63;;
42912;SDS011;50720;54.324;18.558;2022-07-23T04:52:44;10.98;;;7.53;;
42912;SDS011;50720;54.324;18.558;2022-07-23T04:55:16;11.50;;;7.90;;
42912;SDS011;50720;54.324;18.558;2022-07-23T04:57:46;12.38;;;7.28;;
42912;SDS011;50720;54.324;18.558;2022-07-23T05:00:16;10.82;;;6.78;;
42912;SDS011;50720;54.324;18.558;2022-07-23T05:02:45;8.60;;;6.87;;
42912;SDS011;50720;54.324;18.558;2022-07-23T05:05:15;10.95;;;6.93;;
42912;SDS011;50720;54.324;18.558;2022-07-23T05:07:45;10.13;;;6.97;;
42912;SDS011;50720;54.324;18.558;2022-07-23T05:10:16;15.03;;;6.40;;
42912;SDS011;50720;54.324;18.558;2022-07-23T05:12:46;11.45;;;7.63;;
42912;SDS011;50720;54.324;18.558;2022-07-23T05:15:16;12.88;;;7.05;;
42912;SDS011;50720;54.324;18.558;2022-07-23T05:17:45;14.73;;;6.35;;
42912;SDS011;50720;54.324;18.558;2022-07-23T05:20:15;10.35;;;6.75;;
42912;SDS011;50720;54.324;18.558;2022-07-23T05:22:45;14.27;;;6.38;;
42912;SDS011;50720;54.324;18.558;2022-07-23T05:25:16;9.40;;;6.35;;
42912;SDS011;50720;54.324;18.558;2022-07-23T05:27:46;10.30;;;7.65;;
42912;SDS011;50720;54.324;18.558;2022-07-23T05:30:15;11.32;;;6.68;;
42912;SDS011;50720;54.324;18.558;2022-07-23T05:32:45;9.87;;;5.70;;
42912;SDS011;50720;54.324;18.558;2022-07-23T05:35:17;9.45;;;5.70;;
42912;SDS011;50720;54.324;18.558;2022-07-23T05:37:46;8.32;;;6.13;;
42912;SDS011;50720;54.324;18.558;2022-07-23T05:40:17;7.93;;;5.43;;
42912;SDS011;50720;54.324;18.558;2022-07-23T05:42:48;8.68;;;5.57;;
42912;SDS011;50720;54.324;18.558;2022-07-23T05:45:17;11.63;;;6.25;;
42912;SDS011;50720;54.324;18.558;2022-07-23T05:47:47;7.63;;;5.35;;
42912;SDS011;50720;54.324;18.558;2022-07-23T05:50:18;6.95;;;5.32;;
42912;SDS011;50720;54.324;18.558;2022-07-23T05:52:47;10.02;;;5.22;;
42912;SDS011;50720;54.324;18.558;2022-07-23T05:55:18;23.05;;;5.60;;
42912;SDS011;50720;54.324;18.558;2022-07-23T05:57:48;9.68;;;4.88;;
42912;SDS011;50720;54.324;18.558;2022-07-23T06:00:18;8.30;;;6.45;;
42912;SDS011;50720;54.324;18.558;2022-07-23T06:02:47;17.48;;;6.43;;
42912;SDS011;50720;54.324;18.558;2022-07-23T06:05:22;9.23;;;5.00;;
42912;SDS011;50720;54.324;18.558;2022-07-23T06:07:52;7.88;;;4.60;;
42912;SDS011;50720;54.324;18.558;2022-07-23T06:10:23;11.48;;;5.78;;
42912;SDS011;50720;54.324;18.558;2022-07-23T06:12:53;11.30;;;5.22;;
42912;SDS011;50720;54.324;18.558;2022-07-23T06:15:28;14.85;;;5.00;;
42912;SDS011;50720;54.324;18.558;2022-07-23T06:17:58;6.03;;;4.70;;
42912;SDS011;50720;54.324;18.558;2022-07-23T06:20:28;10.48;;;4.22;;
42912;SDS011;50720;54.324;18.558;2022-07-23T06:22:57;11.48;;;6.28;;
42912;SDS011;50720;54.324;18.558;2022-07-23T06:25:29;5.30;;;4.25;;
42912;SDS011;50720;54.324;18.558;2022-07-23T06:27:59;8.63;;;4.90;;
42912;SDS011;50720;54.324;18.558;2022-07-23T06:30:29;8.32;;;4.72;;
42912;SDS011;50720;54.324;18.558;2022-07-23T06:32:58;5.82;;;4.63;;
42912;SDS011;50720;54.324;18.558;2022-07-23T06:35:27;14.48;;;6.32;;
42912;SDS011;50720;54.324;18.558;2022-07-23T06:37:58;10.40;;;5.28;;
42912;SDS011;50720;54.324;18.558;2022-07-23T06:43:00;9.60;;;4.35;;
42912;SDS011;50720;54.324;18.558;2022-07-23T06:45:30;8.90;;;4.50;;
42912;SDS011;50720;54.324;18.558;2022-07-23T06:47:59;7.95;;;4.18;;
42912;SDS011;50720;54.324;18.558;2022-07-23T06:50:30;10.00;;;4.78;;
42912;SDS011;50720;54.324;18.558;2022-07-23T06:52:59;7.63;;;3.97;;
42912;SDS011;50720;54.324;18.558;2022-07-23T06:55:31;11.60;;;4.47;;
42912;SDS011;50720;54.324;18.558;2022-07-23T06:58:05;9.27;;;4.63;;
42912;SDS011;50720;54.324;18.558;2022-07-23T07:00:37;5.85;;;3.75;;
42912;SDS011;50720;54.324;18.558;2022-07-23T07:03:06;11.50;;;4.87;;
42912;SDS011;50720;54.324;18.558;2022-07-23T07:05:36;7.80;;;4.68;;
42912;SDS011;50720;54.324;18.558;2022-07-23T07:08:07;11.23;;;5.30;;
42912;SDS011;50720;54.324;18.558;2022-07-23T07:10:38;10.63;;;5.07;;
42912;SDS011;50720;54.324;18.558;2022-07-23T07:13:08;6.18;;;4.15;;
42912;SDS011;50720;54.324;18.558;2022-07-23T07:15:37;7.87;;;4.93;;
42912;SDS011;50720;54.324;18.558;2022-07-23T07:18:07;7.47;;;4.03;;
42912;SDS011;50720;54.324;18.558;2022-07-23T07:20:37;9.27;;;4.95;;
42912;SDS011;50720;54.324;18.558;2022-07-23T07:23:07;11.10;;;4.90;;
42912;SDS011;50720;54.324;18.558;2022-07-23T07:25:39;6.65;;;4.50;;
42912;SDS011;50720;54.324;18.558;2022-07-23T07:28:09;6.32;;;4.13;;
42912;SDS011;50720;54.324;18.558;2022-07-23T07:30:38;12.37;;;4.73;;
42912;SDS011;50720;54.324;18.558;2022-07-23T07:33:08;7.33;;;4.70;;
42912;SDS011;50720;54.324;18.558;2022-07-23T07:35:38;5.90;;;4.75;;
42912;SDS011;50720;54.324;18.558;2022-07-23T07:38:07;7.03;;;5.28;;
42912;SDS011;50720;54.324;18.558;2022-07-23T07:40:38;7.47;;;4.70;;
42912;SDS011;50720;54.324;18.558;2022-07-23T07:43:09;6.25;;;4.85;;
42912;SDS011;50720;54.324;18.558;2022-07-23T07:45:38;7.57;;;4.90;;
42912;SDS011;50720;54.324;18.558;2022-07-23T07:48:07;7.05;;;4.30;;
42912;SDS011;50720;54.324;18.558;2022-07-23T07:53:07;6.07;;;4.72;;
42912;SDS011;50720;54.324;18.558;2022-07-23T07:55:38;5.40;;;4.80;;
42912;SDS011;50720;54.324;18.558;2022-07-23T07:58:08;10.90;;;4.68;;
42912;SDS011;50720;54.324;18.558;2022-07-23T08:00:39;7.38;;;4.65;;
42912;SDS011;50720;54.324;18.558;2022-07-23T08:05:39;6.13;;;4.15;;
42912;SDS011;50720;54.324;18.558;2022-07-23T08:08:09;4.67;;;4.23;;
42912;SDS011;50720;54.324;18.558;2022-07-23T08:10:44;6.18;;;4.35;;
42912;SDS011;50720;54.324;18.558;2022-07-23T08:13:13;5.57;;;4.47;;
42912;SDS011;50720;54.324;18.558;2022-07-23T08:15:45;6.70;;;5.45;;
42912;SDS011;50720;54.324;18.558;2022-07-23T08:18:14;24.50;;;4.97;;
42912;SDS011;50720;54.324;18.558;2022-07-23T08:20:44;7.83;;;6.13;;
42912;SDS011;50720;54.324;18.558;2022-07-23T08:23:13;6.40;;;4.72;;
42912;SDS011;50720;54.324;18.558;2022-07-23T08:25:47;13.65;;;5.07;;
42912;SDS011;50720;54.324;18.558;2022-07-23T08:28:17;6.32;;;4.97;;
42912;SDS011;50720;54.324;18.558;2022-07-23T08:30:47;5.00;;;4.27;;
42912;SDS011;50720;54.324;18.558;2022-07-23T08:33:17;10.65;;;5.00;;
42912;SDS011;50720;54.324;18.558;2022-07-23T08:36:01;7.57;;;5.30;;
42912;SDS011;50720;54.324;18.558;2022-07-23T08:38:32;7.43;;;4.68;;
42912;SDS011;50720;54.324;18.558;2022-07-23T08:41:04;7.90;;;4.78;;
42912;SDS011;50720;54.324;18.558;2022-07-23T08:43:36;12.52;;;5.47;;
42912;SDS011;50720;54.324;18.558;2022-07-23T08:46:09;7.55;;;5.25;;
42912;SDS011;50720;54.324;18.558;2022-07-23T08:48:40;11.05;;;5.10;;
42912;SDS011;50720;54.324;18.558;2022-07-23T08:53:39;8.95;;;5.10;;
42912;SDS011;50720;54.324;18.558;2022-07-23T08:56:11;6.60;;;4.70;;
42912;SDS011;50720;54.324;18.558;2022-07-23T08:58:41;7.05;;;5.30;;
42912;SDS011;50720;54.324;18.558;2022-07-23T09:01:11;7.95;;;4.80;;
42912;SDS011;50720;54.324;18.558;2022-07-23T09:03:40;6.93;;;4.68;;
42912;SDS011;50720;54.324;18.558;2022-07-23T09:06:12;5.30;;;4.80;;
42912;SDS011;50720;54.324;18.558;2022-07-23T09:08:43;7.82;;;4.50;;
42912;SDS011;50720;54.324;18.558;2022-07-23T09:11:16;6.00;;;4.63;;
42912;SDS011;50720;54.324;18.558;2022-07-23T09:13:46;6.53;;;4.90;;
42912;SDS011;50720;54.324;18.558;2022-07-23T09:16:17;10.68;;;4.85;;
42912;SDS011;50720;54.324;18.558;2022-07-23T09:18:50;6.65;;;5.18;;
42912;SDS011;50720;54.324;18.558;2022-07-23T09:21:22;6.43;;;5.25;;
42912;SDS011;50720;54.324;18.558;2022-07-23T09:23:54;6.72;;;4.90;;
42912;SDS011;50720;54.324;18.558;2022-07-23T09:26:32;8.75;;;4.72;;
42912;SDS011;50720;54.324;18.558;2022-07-23T09:29:08;6.32;;;4.43;;
42912;SDS011;50720;54.324;18.558;2022-07-23T09:31:43;4.82;;;4.30;;
42912;SDS011;50720;54.324;18.558;2022-07-23T09:34:17;5.38;;;4.20;;
42912;SDS011;50720;54.324;18.558;2022-07-23T09:36:50;8.82;;;4.30;;
42912;SDS011;50720;54.324;18.558;2022-07-23T09:39:25;6.90;;;4.68;;
42912;SDS011;50720;54.324;18.558;2022-07-23T09:42:12;7.70;;;5.10;;
42912;SDS011;50720;54.324;18.558;2022-07-23T09:44:43;5.68;;;4.30;;
42912;SDS011;50720;54.324;18.558;2022-07-23T09:47:14;6.30;;;3.95;;
42912;SDS011;50720;54.324;18.558;2022-07-23T09:49:57;7.00;;;4.40;;
42912;SDS011;50720;54.324;18.558;2022-07-23T09:52:29;8.13;;;5.05;;
42912;SDS011;50720;54.324;18.558;2022-07-23T09:55:02;7.85;;;5.53;;
42912;SDS011;50720;54.324;18.558;2022-07-23T09:57:36;6.45;;;4.43;;
42912;SDS011;50720;54.324;18.558;2022-07-23T10:00:08;6.95;;;4.93;;
42912;SDS011;50720;54.324;18.558;2022-07-23T10:02:39;6.75;;;4.80;;
42912;SDS011;50720;54.324;18.558;2022-07-23T10:05:09;4.50;;;4.10;;
42912;SDS011;50720;54.324;18.558;2022-07-23T10:07:39;7.53;;;4.55;;
42912;SDS011;50720;54.324;18.558;2022-07-23T10:10:09;5.80;;;4.45;;
42912;SDS011;50720;54.324;18.558;2022-07-23T10:15:38;7.97;;;5.10;;
42912;SDS011;50720;54.324;18.558;2022-07-23T10:18:09;5.82;;;4.70;;
42912;SDS011;50720;54.324;18.558;2022-07-23T10:20:40;4.55;;;4.15;;
42912;SDS011;50720;54.324;18.558;2022-07-23T10:23:11;4.88;;;4.38;;
42912;SDS011;50720;54.324;18.558;2022-07-23T10:25:49;8.50;;;5.13;;
42912;SDS011;50720;54.324;18.558;2022-07-23T10:28:38;6.85;;;4.72;;
42912;SDS011;50720;54.324;18.558;2022-07-23T10:31:29;6.40;;;4.53;;
42912;SDS011;50720;54.324;18.558;2022-07-23T10:34:26;6.18;;;5.18;;
42912;SDS011;50720;54.324;18.558;2022-07-23T10:37:07;8.15;;;5.90;;
42912;SDS011;50720;54.324;18.558;2022-07-23T10:39:47;5.35;;;4.70;;
42912;SDS011;50720;54.324;18.558;2022-07-23T10:42:37;5.82;;;5.20;;
42912;SDS011;50720;54.324;18.558;2022-07-23T10:45:29;6.28;;;5.68;;
42912;SDS011;50720;54.324;18.558;2022-07-23T10:48:14;7.22;;;5.28;;
42912;SDS011;50720;54.324;18.558;2022-07-23T10:53:53;8.15;;;5.15;;
42912;SDS011;50720;54.324;18.558;2022-07-23T10:59:20;6.78;;;4.90;;
42912;SDS011;50720;54.324;18.558;2022-07-23T11:01:51;8.47;;;5.27;;
42912;SDS011;50720;54.324;18.558;2022-07-23T11:04:22;9.25;;;4.78;;
42912;SDS011;50720;54.324;18.558;2022-07-23T11:07:17;9.27;;;5.40;;
42912;SDS011;50720;54.324;18.558;2022-07-23T11:09:48;5.30;;;4.78;;
42912;SDS011;50720;54.324;18.558;2022-07-23T11:15:03;6.75;;;4.70;;
42912;SDS011;50720;54.324;18.558;2022-07-23T11:17:36;8.27;;;4.60;;
42912;SDS011;50720;54.324;18.558;2022-07-23T11:20:18;7.05;;;4.97;;
42912;SDS011;50720;54.324;18.558;2022-07-23T11:22:50;9.45;;;5.32;;
42912;SDS011;50720;54.324;18.558;2022-07-23T11:25:30;8.95;;;5.43;;
42912;SDS011;50720;54.324;18.558;2022-07-23T11:28:11;7.78;;;5.15;;
42912;SDS011;50720;54.324;18.558;2022-07-23T11:30:45;5.68;;;4.85;;
42912;SDS011;50720;54.324;18.558;2022-07-23T11:33:18;9.98;;;5.53;;
42912;SDS011;50720;54.324;18.558;2022-07-23T11:35:50;6.10;;;4.75;;
42912;SDS011;50720;54.324;18.558;2022-07-23T11:38:31;6.45;;;5.25;;
42912;SDS011;50720;54.324;18.558;2022-07-23T11:41:02;6.90;;;5.80;;
42912;SDS011;50720;54.324;18.558;2022-07-23T11:43:32;6.22;;;5.15;;
42912;SDS011;50720;54.324;18.558;2022-07-23T11:46:09;11.45;;;5.60;;
42912;SDS011;50720;54.324;18.558;2022-07-23T11:48:40;9.25;;;5.93;;
42912;SDS011;50720;54.324;18.558;2022-07-23T11:51:10;6.53;;;5.65;;
42912;SDS011;50720;54.324;18.558;2022-07-23T11:53:53;9.30;;;5.13;;
42912;SDS011;50720;54.324;18.558;2022-07-23T11:59:03;10.90;;;5.30;;
42912;SDS011;50720;54.324;18.558;2022-07-23T12:01:34;9.15;;;5.85;;
42912;SDS011;50720;54.324;18.558;2022-07-23T12:04:05;8.27;;;5.10;;
42912;SDS011;50720;54.324;18.558;2022-07-23T12:06:37;10.20;;;5.72;;
42912;SDS011;50720;54.324;18.558;2022-07-23T12:09:07;5.68;;;4.93;;
42912;SDS011;50720;54.324;18.558;2022-07-23T12:11:41;9.43;;;5.03;;
42912;SDS011;50720;54.324;18.558;2022-07-23T12:14:25;9.18;;;6.20;;
42912;SDS011;50720;54.324;18.558;2022-07-23T12:17:08;9.13;;;5.97;;
42912;SDS011;50720;54.324;18.558;2022-07-23T12:19:39;7.40;;;5.55;;
42912;SDS011;50720;54.324;18.558;2022-07-23T12:22:12;6.70;;;4.75;;
42912;SDS011;50720;54.324;18.558;2022-07-23T12:24:55;7.30;;;5.55;;
42912;SDS011;50720;54.324;18.558;2022-07-23T12:27:27;12.63;;;6.50;;
42912;SDS011;50720;54.324;18.558;2022-07-23T12:29:56;9.18;;;6.18;;
42912;SDS011;50720;54.324;18.558;2022-07-23T12:32:26;6.22;;;5.60;;
42912;SDS011;50720;54.324;18.558;2022-07-23T12:35:06;9.75;;;6.25;;
42912;SDS011;50720;54.324;18.558;2022-07-23T12:37:37;9.57;;;6.13;;
42912;SDS011;50720;54.324;18.558;2022-07-23T12:40:24;12.30;;;6.47;;
42912;SDS011;50720;54.324;18.558;2022-07-23T12:42:56;10.52;;;5.97;;
42912;SDS011;50720;54.324;18.558;2022-07-23T12:45:28;7.72;;;5.32;;
42912;SDS011;50720;54.324;18.558;2022-07-23T12:48:15;7.65;;;5.55;;
42912;SDS011;50720;54.324;18.558;2022-07-23T12:50:55;7.82;;;5.03;;
42912;SDS011;50720;54.324;18.558;2022-07-23T12:53:27;7.82;;;5.13;;
42912;SDS011;50720;54.324;18.558;2022-07-23T12:55:59;6.30;;;4.63;;
42912;SDS011;50720;54.324;18.558;2022-07-23T12:58:42;7.72;;;5.43;;
42912;SDS011;50720;54.324;18.558;2022-07-23T13:01:22;8.75;;;5.38;;
42912;SDS011;50720;54.324;18.558;2022-07-23T13:03:57;9.48;;;5.30;;
42912;SDS011;50720;54.324;18.558;2022-07-23T13:06:40;8.27;;;5.22;;
42912;SDS011;50720;54.324;18.558;2022-07-23T13:09:11;7.50;;;5.60;;
42912;SDS011;50720;54.324;18.558;2022-07-23T13:11:43;8.80;;;6.18;;
42912;SDS011;50720;54.324;18.558;2022-07-23T13:14:14;11.52;;;6.10;;
42912;SDS011;50720;54.324;18.558;2022-07-23T13:16:48;6.22;;;4.85;;
42912;SDS011;50720;54.324;18.558;2022-07-23T13:19:18;6.00;;;4.57;;
42912;SDS011;50720;54.324;18.558;2022-07-23T13:21:53;6.57;;;4.68;;
42912;SDS011;50720;54.324;18.558;2022-07-23T13:24:24;5.93;;;4.10;;
42912;SDS011;50720;54.324;18.558;2022-07-23T13:31:54;5.80;;;4.88;;
42912;SDS011;50720;54.324;18.558;2022-07-23T13:34:24;6.13;;;4.28;;
42912;SDS011;50720;54.324;18.558;2022-07-23T13:36:55;5.45;;;3.75;;
42912;SDS011;50720;54.324;18.558;2022-07-23T13:39:25;4.13;;;3.72;;
42912;SDS011;50720;54.324;18.558;2022-07-23T13:41:56;9.52;;;4.22;;
42912;SDS011;50720;54.324;18.558;2022-07-23T13:46:55;4.65;;;3.70;;
42912;SDS011;50720;54.324;18.558;2022-07-23T13:49:25;4.63;;;3.88;;
42912;SDS011;50720;54.324;18.558;2022-07-23T13:51:57;4.10;;;3.60;;
42912;SDS011;50720;54.324;18.558;2022-07-23T13:54:27;4.63;;;3.70;;
42912;SDS011;50720;54.324;18.558;2022-07-23T13:59:27;4.40;;;3.75;;
42912;SDS011;50720;54.324;18.558;2022-07-23T14:01:57;4.40;;;4.00;;
42912;SDS011;50720;54.324;18.558;2022-07-23T14:07:18;4.80;;;3.60;;
42912;SDS011;50720;54.324;18.558;2022-07-23T14:09:49;5.80;;;4.05;;
42912;SDS011;50720;54.324;18.558;2022-07-23T14:12:19;4.65;;;4.13;;
42912;SDS011;50720;54.324;18.558;2022-07-23T14:14:50;4.90;;;3.50;;
42912;SDS011;50720;54.324;18.558;2022-07-23T14:17:19;4.47;;;3.58;;
42912;SDS011;50720;54.324;18.558;2022-07-23T14:19:52;4.30;;;3.90;;
42912;SDS011;50720;54.324;18.558;2022-07-23T14:22:24;4.45;;;3.67;;
42912;SDS011;50720;54.324;18.558;2022-07-23T14:24:54;3.88;;;3.50;;
42912;SDS011;50720;54.324;18.558;2022-07-23T14:27:24;5.50;;;4.20;;
42912;SDS011;50720;54.324;18.558;2022-07-23T14:29:57;4.72;;;4.18;;
42912;SDS011;50720;54.324;18.558;2022-07-23T14:32:30;5.75;;;4.10;;
42912;SDS011;50720;54.324;18.558;2022-07-23T14:37:33;5.50;;;4.18;;
42912;SDS011;50720;54.324;18.558;2022-07-23T14:40:03;5.88;;;4.20;;
42912;SDS011;50720;54.324;18.558;2022-07-23T14:42:34;4.68;;;3.92;;
42912;SDS011;50720;54.324;18.558;2022-07-23T14:47:36;4.93;;;4.43;;
42912;SDS011;50720;54.324;18.558;2022-07-23T14:50:08;8.75;;;4.40;;
42912;SDS011;50720;54.324;18.558;2022-07-23T14:52:40;7.50;;;4.35;;
42912;SDS011;50720;54.324;18.558;2022-07-23T14:55:10;7.78;;;4.07;;
42912;SDS011;50720;54.324;18.558;2022-07-23T14:57:40;4.72;;;4.32;;
42912;SDS011;50720;54.324;18.558;2022-07-23T15:00:10;6.85;;;5.35;;
42912;SDS011;50720;54.324;18.558;2022-07-23T15:02:43;5.22;;;4.72;;
42912;SDS011;50720;54.324;18.558;2022-07-23T15:05:32;6.67;;;4.67;;
42912;SDS011;50720;54.324;18.558;2022-07-23T15:08:04;8.75;;;5.05;;
42912;SDS011;50720;54.324;18.558;2022-07-23T15:10:35;6.68;;;4.60;;
42912;SDS011;50720;54.324;18.558;2022-07-23T15:15:34;5.43;;;4.88;;
42912;SDS011;50720;54.324;18.558;2022-07-23T15:18:06;5.00;;;4.32;;
42912;SDS011;50720;54.324;18.558;2022-07-23T15:20:36;5.38;;;4.50;;
42912;SDS011;50720;54.324;18.558;2022-07-23T15:23:08;5.40;;;4.47;;
42912;SDS011;50720;54.324;18.558;2022-07-23T15:25:38;6.10;;;4.57;;
42912;SDS011;50720;54.324;18.558;2022-07-23T15:28:17;6.40;;;4.57;;
42912;SDS011;50720;54.324;18.558;2022-07-23T15:30:47;5.57;;;4.57;;
42912;SDS011;50720;54.324;18.558;2022-07-23T15:33:18;5.05;;;4.55;;
42912;SDS011;50720;54.324;18.558;2022-07-23T15:35:51;10.65;;;5.40;;
42912;SDS011;50720;54.324;18.558;2022-07-23T15:38:24;6.43;;;4.38;;
42912;SDS011;50720;54.324;18.558;2022-07-23T15:40:56;6.22;;;4.82;;
42912;SDS011;50720;54.324;18.558;2022-07-23T15:43:27;5.68;;;3.90;;
42912;SDS011;50720;54.324;18.558;2022-07-23T15:45:57;6.05;;;5.13;;